地図

経路データ

SID SEASON NUMBER BASIN SUBBASIN NAME ISO_TIME NATURE LAT LON WMO_WIND WMO_PRES WMO_AGENCY TRACK_TYPE DIST2LAND LANDFALL IFLAG USA_AGENCY USA_ATCF_ID USA_LAT USA_LON USA_RECORD USA_STATUS USA_WIND USA_PRES USA_SSHS USA_R34_NE USA_R34_SE USA_R34_SW USA_R34_NW USA_R50_NE USA_R50_SE USA_R50_SW USA_R50_NW USA_R64_NE USA_R64_SE USA_R64_SW USA_R64_NW USA_POCI USA_ROCI USA_RMW USA_EYE TOKYO_LAT TOKYO_LON TOKYO_GRADE TOKYO_WIND TOKYO_PRES TOKYO_R50_DIR TOKYO_R50_LONG TOKYO_R50_SHORT TOKYO_R30_DIR TOKYO_R30_LONG TOKYO_R30_SHORT TOKYO_LAND CMA_LAT CMA_LON CMA_CAT CMA_WIND CMA_PRES HKO_LAT HKO_LON HKO_CAT HKO_WIND HKO_PRES NEWDELHI_LAT NEWDELHI_LON NEWDELHI_GRADE NEWDELHI_WIND NEWDELHI_PRES NEWDELHI_CI NEWDELHI_DP NEWDELHI_POCI REUNION_LAT REUNION_LON REUNION_TYPE REUNION_WIND REUNION_PRES REUNION_TNUM REUNION_CI REUNION_RMW REUNION_R34_NE REUNION_R34_SE REUNION_R34_SW REUNION_R34_NW REUNION_R50_NE REUNION_R50_SE REUNION_R50_SW REUNION_R50_NW REUNION_R64_NE REUNION_R64_SE REUNION_R64_SW REUNION_R64_NW BOM_LAT BOM_LON BOM_TYPE BOM_WIND BOM_PRES BOM_TNUM BOM_CI BOM_RMW BOM_R34_NE BOM_R34_SE BOM_R34_SW BOM_R34_NW BOM_R50_NE BOM_R50_SE BOM_R50_SW BOM_R50_NW BOM_R64_NE BOM_R64_SE BOM_R64_SW BOM_R64_NW BOM_ROCI BOM_POCI BOM_EYE BOM_POS_METHOD BOM_PRES_METHOD NADI_LAT NADI_LON NADI_CAT NADI_WIND NADI_PRES WELLINGTON_LAT WELLINGTON_LON WELLINGTON_WIND WELLINGTON_PRES DS824_LAT DS824_LON DS824_STAGE DS824_WIND DS824_PRES TD9636_LAT TD9636_LON TD9636_STAGE TD9636_WIND TD9636_PRES TD9635_LAT TD9635_LON TD9635_WIND TD9635_PRES TD9635_ROCI NEUMANN_LAT NEUMANN_LON NEUMANN_CLASS NEUMANN_WIND NEUMANN_PRES MLC_LAT MLC_LON MLC_CLASS MLC_WIND MLC_PRES USA_GUST BOM_GUST BOM_GUST_PER REUNION_GUST REUNION_GUST_PER USA_SEAHGT USA_SEARAD_NE USA_SEARAD_SE USA_SEARAD_SW USA_SEARAD_NW STORM_SPEED STORM_DIR
1882278N11279 1882 35 NA CS NOT_NAMED 1882-10-04 12:00:00 TS 11.0000 -81.4000 main 204 204 _____________O -1 11.0000 -81.4000 TD 30 3 327
1882278N11279 1882 35 NA CS NOT_NAMED 1882-10-04 15:00:00 TS 11.1400 -81.4900 main 205 203 _____________P -1 11.1400 -81.4900 TD 32 4 327
1882278N11279 1882 35 NA CS NOT_NAMED 1882-10-04 18:00:00 TS 11.3000 -81.6000 main 211 203 _____________O -1 11.3000 -81.6000 TS 35 4 325
1882278N11279 1882 35 NA CS NOT_NAMED 1882-10-04 21:00:00 TS 11.4925 -81.7425 main 207 184 _____________P -1 11.4925 -81.7425 TS 37 13 351
1882278N11279 1882 35 NA CS NOT_NAMED 1882-10-05 00:00:00 TS 12.5333 -81.8000 40 hurdat_atl main 184 173 O____________O hurdat_atl AL061882 14.2000 -81.6000 TS 40 0 11.7000 -81.9000 TS 40 17 354
1882278N11279 1882 35 NA CS NOT_NAMED 1882-10-05 03:00:00 TS 13.1500 -81.9100 main 173 151 P____________P AL061882 14.4000 -81.7699 TS 40 0 11.9000 -82.0500 TS 40 11 349
1882278N11279 1882 35 NA CS NOT_NAMED 1882-10-05 06:00:00 TS 13.6000 -82.0200 40 hurdat_atl main 151 126 O____________O hurdat_atl AL061882 14.6000 -81.9000 TS 40 0 12.1000 -82.2000 TS 40 8 347
1882278N11279 1882 35 NA CS NOT_NAMED 1882-10-05 09:00:00 TS 13.9542 -82.1058 main 123 108 P____________P AL061882 14.8000 -81.9650 TS 40 0 12.2625 -82.3874 TS 40 6 346
1882278N11279 1882 35 NA CS NOT_NAMED 1882-10-05 12:00:00 TS 14.1667 -82.1667 40 hurdat_atl main 108 107 O____________O hurdat_atl AL061882 15.0000 -82.0000 TS 40 0 12.5000 -82.5000 TS 40 5 351
1882278N11279 1882 35 NA CS NOT_NAMED 1882-10-05 15:00:00 TS 14.4375 -82.1842 main 108 102 P____________P AL061882 15.2000 -82.0575 TS 40 0 12.9125 -82.4376 TS 42 6 0
1882278N11279 1882 35 NA CS NOT_NAMED 1882-10-05 18:00:00 TS 14.7333 -82.1667 40 hurdat_atl main 102 97 O____________O hurdat_atl AL061882 15.4000 -82.1000 TS 40 0 13.4000 -82.3000 TS 45 6 5
1882278N11279 1882 35 NA CS NOT_NAMED 1882-10-05 21:00:00 TS 15.0167 -82.1309 main 107 107 P____________P AL061882 15.6000 -82.0926 TS 45 0 13.8500 -82.2074 TS 47 6 7
1882278N11279 1882 35 NA CS NOT_NAMED 1882-10-06 00:00:00 TS 15.3000 -82.1000 50 hurdat_atl main 112 112 O____________O hurdat_atl AL061882 15.8000 -82.1000 TS 50 0 14.3000 -82.1000 TS 50 6 1
1882278N11279 1882 35 NA CS NOT_NAMED 1882-10-06 03:00:00 TS 15.5858 -82.1116 main 126 126 P____________P AL061882 16.0000 -82.1925 TS 50 0 14.7575 -81.9500 TS 52 6 356
1882278N11279 1882 35 NA CS NOT_NAMED 1882-10-06 06:00:00 TS 15.8667 -82.1333 50 hurdat_atl main 147 147 O____________O hurdat_atl AL061882 16.2000 -82.3000 TS 50 0 15.2000 -81.8000 TS 55 5 0
1882278N11279 1882 35 NA CS NOT_NAMED 1882-10-06 09:00:00 TS 16.1258 -82.1383 main 163 163 P____________P AL061882 16.4000 -82.3575 TS 50 0 15.5775 -81.6998 TS 57 5 2
1882278N11279 1882 35 NA CS NOT_NAMED 1882-10-06 12:00:00 TS 16.4000 -82.1333 50 hurdat_atl main 185 185 O____________O hurdat_atl AL061882 16.6000 -82.4000 TS 50 0 16.0000 -81.6000 TS 60 6 2
1882278N11279 1882 35 NA CS NOT_NAMED 1882-10-06 15:00:00 TS 16.7358 -82.1192 main 209 209 P____________P AL061882 16.8150 -82.4500 TS 50 0 16.5775 -81.4575 TS 60 7 4
1882278N11279 1882 35 NA CS NOT_NAMED 1882-10-06 18:00:00 TS 17.0667 -82.1000 50 hurdat_atl main 244 244 O____________O hurdat_atl AL061882 17.0000 -82.5000 TS 50 0 17.2000 -81.3000 TS 60 6 6
1882278N11279 1882 35 NA CS NOT_NAMED 1882-10-06 21:00:00 TS 17.3142 -82.0635 main 263 263 P____________P AL061882 17.0925 -82.5426 TS 55 0 17.7575 -81.1053 TS 62 5 5
1882278N11279 1882 35 NA CS NOT_NAMED 1882-10-07 00:00:00 TS 17.5667 -82.0667 60 hurdat_atl main 292 292 O____________O hurdat_atl AL061882 17.2000 -82.6000 TS 60 0 18.3000 -81.0000 HU 65 6 350
1882278N11279 1882 35 NA CS NOT_NAMED 1882-10-07 03:00:00 TS 17.9117 -82.1707 main 317 317 P____________P AL061882 17.4425 -82.6999 TS 60 0 18.8500 -81.1121 HU 65 7 343
1882278N11279 1882 35 NA CS NOT_NAMED 1882-10-07 06:00:00 TS 18.2667 -82.3000 60 hurdat_atl main 350 315 O____________O hurdat_atl AL061882 17.7000 -82.8000 TS 60 0 19.4000 -81.3000 HU 65 7 344
1882278N11279 1882 35 NA CS NOT_NAMED 1882-10-07 09:00:00 TS 18.5750 -82.3742 main 315 293 P____________P AL061882 17.8575 -82.8576 TS 65 1 20.0100 -81.4075 HU 67 6 348
1882278N11279 1882 35 NA CS NOT_NAMED 1882-10-07 12:00:00 TS 18.8333 -82.4333 70 hurdat_atl main 293 270 O____________O hurdat_atl AL061882 18.0000 -82.9000 HU 70 1 20.5000 -81.5000 HU 70 5 345
1882278N11279 1882 35 NA CS NOT_NAMED 1882-10-07 15:00:00 TS 19.0392 -82.5000 main 270 246 P____________P AL061882 18.2000 -82.9500 HU 70 1 20.7175 -81.6001 HU 70 4 341
1882278N11279 1882 35 NA CS NOT_NAMED 1882-10-07 18:00:00 TS 19.2000 -82.5667 70 hurdat_atl main 246 235 O____________O hurdat_atl AL061882 18.4000 -83.0000 HU 70 1 20.8000 -81.7000 HU 70 3 337
1882278N11279 1882 35 NA CS NOT_NAMED 1882-10-07 21:00:00 TS 19.3358 -82.6309 main 235 212 P____________P AL061882 18.5500 -83.0500 HU 75 1 20.9075 -81.7925 HU 75 3 335
1882278N11279 1882 35 NA CS NOT_NAMED 1882-10-08 00:00:00 TS 19.4667 -82.7000 80 hurdat_atl main 212 201 O____________O hurdat_atl AL061882 18.7000 -83.1000 HU 80 1 21.0000 -81.9000 HU 80 3 336
1882278N11279 1882 35 NA CS NOT_NAMED 1882-10-08 03:00:00 TS 19.6308 -82.7683 main 201 178 P____________P AL061882 18.8925 -83.1500 HU 85 2 21.1073 -82.0050 HU 85 4 335
1882278N11279 1882 35 NA CS NOT_NAMED 1882-10-08 06:00:00 TS 19.8000 -82.8667 90 hurdat_atl main 179 168 O____________O hurdat_atl AL061882 19.1000 -83.2000 HU 90 2 21.2000 -82.2000 HU 90 4 320
1882278N11279 1882 35 NA CS NOT_NAMED 1882-10-08 09:00:00 TS 19.9251 -83.0284 main 169 151 P____________P AL061882 19.2775 -83.2426 HU 95 2 21.2203 -82.6002 HU 95 4 314
1882278N11279 1882 35 NA CS NOT_NAMED 1882-10-08 12:00:00 TS 20.1000 -83.2000 100 hurdat_atl main 151 123 O____________O hurdat_atl AL061882 19.5000 -83.3000 HU 100 3 21.3000 -83.0000 MH 100 5 329
1882278N11279 1882 35 NA CS NOT_NAMED 1882-10-08 15:00:00 TS 20.3908 -83.3242 main 123 98 P____________P AL061882 19.8050 -83.3925 HU 105 3 21.5623 -83.1875 MH 110 7 342
1882278N11279 1882 35 NA CS NOT_NAMED 1882-10-08 18:00:00 TS 20.7667 -83.4333 110 hurdat_atl main 88 68 O____________O hurdat_atl AL061882 20.2000 -83.5000 HU 110 3 21.9000 -83.3000 MH 120 8 345
1882278N11279 1882 35 NA CS NOT_NAMED 1882-10-08 21:00:00 TS 21.1925 -83.5575 main 70 45 P____________P AL061882 20.6775 -83.6000 HU 115 4 22.2225 -83.4724 MH 110 9 346
1882278N11279 1882 35 NA CS NOT_NAMED 1882-10-09 00:00:00 TS 21.6333 -83.6667 120 hurdat_atl main 45 22 O____________O hurdat_atl AL061882 21.2000 -83.7000 HU 120 4 22.5000 -83.6000 MH 100 975 8 348
1882278N11279 1882 35 NA CS NOT_NAMED 1882-10-09 03:00:00 TS 22.0067 -83.7434 main 22 0 P____________P AL061882 21.6775 -83.8075 HU 110 3 22.6650 -83.6152 MH 95 8 351
1882278N11279 1882 35 NA NA NOT_NAMED 1882-10-09 06:00:00 TS 22.4000 -83.8000 100 hurdat_atl main 0 0 O____________O hurdat_atl AL061882 22.2000 -83.9000 HU 100 3 22.8000 -83.6000 HU 90 9 353
1882278N11279 1882 35 NA GM NOT_NAMED 1882-10-09 09:00:00 TS 22.9050 -83.8550 main 22 22 P____________P AL061882 22.8575 -83.9576 HU 95 2 23.0000 -83.6499 HU 90 10 355
1882278N11279 1882 35 NA GM NOT_NAMED 1882-10-09 12:00:00 TS 23.4000 -83.9000 90 hurdat_atl main 70 70 O____________O hurdat_atl AL061882 23.5000 -84.0000 HU 90 2 23.2000 -83.7000 HU 90 8 355
1882278N11279 1882 35 NA GM NOT_NAMED 1882-10-09 15:00:00 TS 23.7425 -83.9408 main 102 102 P____________P AL061882 23.9725 -84.0575 HU 85 2 23.2825 -83.7075 HU 85 7 355
1882278N11279 1882 35 NA GM NOT_NAMED 1882-10-09 18:00:00 TS 24.1000 -83.9667 80 hurdat_atl main 147 147 O____________O hurdat_atl AL061882 24.4000 -84.1000 HU 80 1 23.5000 -83.7000 HU 80 9 358
1882278N11279 1882 35 NA GM NOT_NAMED 1882-10-09 21:00:00 TS 24.6175 -83.9742 main 199 199 P____________P AL061882 24.8850 -84.1076 HU 75 1 24.0825 -83.7074 HU 75 11 0
1882278N11279 1882 35 NA GM NOT_NAMED 1882-10-10 00:00:00 TS 25.2000 -83.9667 70 hurdat_atl main 242 209 O____________O hurdat_atl AL061882 25.4000 -84.1000 HU 70 1 24.8000 -83.7000 HU 70 12 1
1882278N11279 1882 35 NA GM NOT_NAMED 1882-10-10 03:00:00 TS 25.7667 -83.9550 main 202 168 P____________P AL061882 25.9500 -84.1074 HU 70 1 25.4000 -83.6502 HU 70 11 2
1882278N11279 1882 35 NA GM NOT_NAMED 1882-10-10 06:00:00 TS 26.3333 -83.9333 70 hurdat_atl main 168 136 O____________O hurdat_atl AL061882 26.5000 -84.1000 HU 70 1 26.0000 -83.6000 HU 70 11 2
1882278N11279 1882 35 NA GM NOT_NAMED 1882-10-10 09:00:00 TS 26.9083 -83.9149 main 136 113 P____________P AL061882 27.0225 -84.0650 HU 70 1 26.6800 -83.6146 HU 70 11 3
1882278N11279 1882 35 NA GM NOT_NAMED 1882-10-10 12:00:00 TS 27.4333 -83.8667 70 hurdat_atl main 113 89 O____________O hurdat_atl AL061882 27.5000 -84.0000 HU 70 1 27.3000 -83.6000 HU 70 10 8
1882278N11279 1882 35 NA GM NOT_NAMED 1882-10-10 15:00:00 TS 27.8583 -83.7625 main 88 76 P____________P AL061882 27.9150 -83.9075 HU 70 1 27.7450 -83.4726 HU 70 8 14
1882278N11279 1882 35 NA GM NOT_NAMED 1882-10-10 18:00:00 TS 28.2333 -83.6333 70 hurdat_atl main 76 76 O____________O hurdat_atl AL061882 28.3000 -83.8000 HU 70 1 28.1000 -83.3000 HU 70 8 15
1882278N11279 1882 35 NA GM NOT_NAMED 1882-10-10 21:00:00 TS 28.6313 -83.5317 main 77 36 P____________P AL061882 28.7182 -83.7226 HU 70 1 28.4575 -83.1499 HU 70 8 15
1882278N11279 1882 35 NA GM NOT_NAMED 1882-10-11 00:00:00 TS 29.0000 -83.4000 70 hurdat_atl main 36 9 O____________O hurdat_atl AL061882 29.1000 -83.6000 HU 70 1 28.8000 -83.0000 HU 70 7 23
1882278N11279 1882 35 NA GM NOT_NAMED 1882-10-11 03:00:00 TS 29.3056 -83.2071 main 9 0 P____________P AL061882 29.3835 -83.3894 HU 70 1 29.1500 -82.8425 HU 65 7 29
1882278N11279 1882 35 NA NA NOT_NAMED 1882-10-11 04:00:00 TS 29.4222 -83.1307 70 hurdat_atl main 0 0 O____________P hurdat_atl AL061882 29.5000 -83.3000 L HU 70 1 29.2667 -82.7921 HU 63 9 28
1882278N11279 1882 35 NA NA NOT_NAMED 1882-10-11 06:00:00 TS 29.7000 -82.9667 60 hurdat_atl main 0 0 O____________O hurdat_atl AL061882 29.8000 -83.1000 TS 60 0 29.5000 -82.7000 TS 60 8 23
1882278N11279 1882 35 NA NA NOT_NAMED 1882-10-11 09:00:00 TS 30.0625 -82.8163 main 0 0 P____________P AL061882 30.1729 -82.8764 TS 55 0 29.8417 -82.6961 TS 55 8 26
1882278N11279 1882 35 NA NA NOT_NAMED 1882-10-11 12:00:00 TS 30.4000 -82.5667 50 hurdat_atl main 0 0 O____________O hurdat_atl AL061882 30.5000 -82.6000 TS 50 0 30.2000 -82.5000 TS 50 10 45
1882278N11279 1882 35 NA NA NOT_NAMED 1882-10-11 15:00:00 TS 30.7571 -81.9984 main 0 0 P____________P AL061882 30.8427 -82.0949 TS 50 0 30.5859 -81.8054 TS 50 13 56
1882278N11279 1882 35 NA NA NOT_NAMED 1882-10-11 18:00:00 TS 31.1333 -81.3000 50 hurdat_atl main 9 9 O____________O hurdat_atl AL061882 31.2000 -81.5000 TS 50 0 31.0000 -80.9000 TS 50 14 55
1882278N11279 1882 35 NA NA NOT_NAMED 1882-10-11 21:00:00 TS 31.5345 -80.6809 main 48 43 P____________P AL061882 31.5770 -80.9715 TS 55 0 31.4495 -80.0996 TS 55 14 52
1882278N11279 1882 35 NA NA NOT_NAMED 1882-10-12 00:00:00 TS 31.9667 -80.0333 60 hurdat_atl main 62 50 O____________O hurdat_atl AL061882 32.0000 -80.4000 TS 60 0 31.9000 -79.3000 TS 60 15 52
1882278N11279 1882 35 NA NA NOT_NAMED 1882-10-12 03:00:00 TS 32.4356 -79.3173 main 64 52 P____________P AL061882 32.4998 -79.7301 TS 60 0 32.3071 -78.4917 TS 60 16 53
1882278N11279 1882 35 NA NA NOT_NAMED 1882-10-12 06:00:00 TS 32.9000 -78.5667 60 hurdat_atl main 65 65 O____________O hurdat_atl AL061882 33.0000 -79.0000 TS 60 0 32.7000 -77.7000 TS 60 16 55
1882278N11279 1882 35 NA NA NOT_NAMED 1882-10-12 09:00:00 TS 33.3347 -77.8091 main 69 57 P____________P AL061882 33.4447 -78.2573 TS 65 1 33.1149 -76.9125 TS 62 15 57
1882278N11279 1882 35 NA NA NOT_NAMED 1882-10-12 12:00:00 TS 33.7000 -77.0667 70 hurdat_atl main 85 85 O____________O hurdat_atl AL061882 33.8000 -77.5000 HU 70 1 33.5000 -76.2000 HU 65 14 63
1882278N11279 1882 35 NA NA NOT_NAMED 1882-10-12 15:00:00 TS 33.9530 -76.3572 main 78 78 P____________P AL061882 34.0224 -76.7264 HU 70 1 33.8143 -75.6190 HU 65 12 68
1882278N11279 1882 35 NA NA NOT_NAMED 1882-10-12 18:00:00 TS 34.1667 -75.7000 70 hurdat_atl main 92 92 O____________O hurdat_atl AL061882 34.2000 -76.0000 HU 70 1 34.1000 -75.1000 HU 65 11 65
1882278N11279 1882 35 NA NA NOT_NAMED 1882-10-12 21:00:00 TS 34.4376 -75.1164 main 122 118 P____________P AL061882 34.4565 -75.3998 HU 70 1 34.3998 -74.5496 HU 65 11 61
1882278N11279 1882 35 NA NA NOT_NAMED 1882-10-13 00:00:00 TS 34.7000 -74.5333 70 hurdat_atl main 148 147 O____________O hurdat_atl AL061882 34.7000 -74.8000 HU 70 1 34.7000 -74.0000 HU 65 11 66
1882278N11279 1882 35 NA NA NOT_NAMED 1882-10-13 03:00:00 TS 34.9025 -73.8544 main 176 176 P____________P AL061882 34.8502 -74.0567 HU 70 1 35.0073 -73.4498 HU 65 12 70
1882278N11279 1882 35 NA NA NOT_NAMED 1882-10-13 06:00:00 TS 35.1000 -73.1667 70 hurdat_atl main 222 222 O____________O hurdat_atl AL061882 35.0000 -73.3000 HU 70 1 35.3000 -72.9000 HU 65 12 68
1882278N11279 1882 35 NA NA NOT_NAMED 1882-10-13 09:00:00 TS 35.3600 -72.5029 main 274 274 P____________P AL061882 35.2498 -72.6054 HU 70 1 35.5803 -72.2978 HU 65 11 64
1882278N11279 1882 35 NA NA NOT_NAMED 1882-10-13 12:00:00 TS 35.6000 -71.9333 70 hurdat_atl main 325 325 O____________O hurdat_atl AL061882 35.5000 -72.0000 HU 70 1 35.8000 -71.8000 HU 65 9 64
1882278N11279 1882 35 NA NA NOT_NAMED 1882-10-13 15:00:00 TS 35.7554 -71.5162 main 359 359 P____________P AL061882 35.6721 -71.5045 HU 70 1 35.9221 -71.5394 HU 67 7 66
1882278N11279 1882 35 NA NA NOT_NAMED 1882-10-13 18:00:00 TS 35.8667 -71.2000 70 hurdat_atl main 386 386 O____________O hurdat_atl AL061882 35.8000 -71.1000 HU 70 1 36.0000 -71.4000 HU 70 5 66
1882278N11279 1882 35 NA NA NOT_NAMED 1882-10-13 21:00:00 TS 35.9714 -70.9090 main 413 413 P____________P AL061882 35.9072 -70.7422 HU 70 1 36.0999 -71.2424 HU 70 5 66
1882278N11279 1882 35 NA NA NOT_NAMED 1882-10-14 00:00:00 TS 36.0667 -70.6333 70 hurdat_atl main 441 441 O____________O hurdat_atl AL061882 36.0000 -70.4000 HU 70 1 36.2000 -71.1000 HU 70 5 68
1882278N11279 1882 35 NA NA NOT_NAMED 1882-10-14 03:00:00 TS 36.1642 -70.3116 main 468 468 P____________P AL061882 36.0926 -69.9924 HU 70 1 36.3075 -70.9500 HU 70 5 69
1882278N11279 1882 35 NA NA NOT_NAMED 1882-10-14 06:00:00 TS 36.2667 -70.0000 70 hurdat_atl main 496 496 O____________O hurdat_atl AL061882 36.2000 -69.6000 HU 70 1 36.4000 -70.8000 HU 70 5 65
1882278N11279 1882 35 NA NA NOT_NAMED 1882-10-14 09:00:00 TS 36.3757 -69.7424 main 520 520 P____________P AL061882 36.3497 -69.2925 HU 70 1 36.4275 -70.6423 HU 70 5 60
1882278N11279 1882 35 NA NA NOT_NAMED 1882-10-14 12:00:00 TS 36.5000 -69.5000 70 hurdat_atl main 532 532 O____________O hurdat_atl AL061882 36.5000 -69.0000 HU 70 1 36.5000 -70.5000 HU 70 5 57
1882278N11279 1882 35 NA NA NOT_NAMED 1882-10-14 15:00:00 TS 36.6425 -69.2357 main 549 542 P____________P AL061882 36.6000 -68.6572 HU 70 1 36.7275 -70.3925 HU 70 5 55
1882278N11279 1882 35 NA NA NOT_NAMED 1882-10-14 18:00:00 TS 36.8000 -68.9667 70 hurdat_atl main 543 529 O____________O hurdat_atl AL061882 36.7000 -68.3000 HU 70 1 37.0000 -70.3000 HU 70 5 53
1882278N11279 1882 35 NA NA NOT_NAMED 1882-10-14 21:00:00 TS 36.9666 -68.6950 main 529 521 P____________P AL061882 36.8500 -67.9426 HU 65 1 37.2000 -70.1999 HU 70 5 52
1882278N11279 1882 35 NA NA NOT_NAMED 1882-10-15 00:00:00 TS 37.1333 -68.4333 60 hurdat_atl main 527 510 O____________O hurdat_atl AL061882 37.0000 -67.6000 TS 60 0 37.4000 -70.1000 HU 70 5 51
1882278N11279 1882 35 NA NA NOT_NAMED 1882-10-15 03:00:00 TS 37.2831 -68.2097 main 513 505 P____________P AL061882 37.0997 -67.3146 TS 60 0 37.6500 -70.0000 HU 70 5 51
1882278N11279 1882 35 NA NA NOT_NAMED 1882-10-15 06:00:00 TS 37.4333 -67.9667 60 hurdat_atl main 508 496 O____________O hurdat_atl AL061882 37.2000 -67.0000 TS 60 0 37.9000 -69.9000 HU 70 5 56
1882278N11279 1882 35 NA NA NOT_NAMED 1882-10-15 09:00:00 TS 37.5800 -67.6508 main 496 483 P____________P AL061882 37.3425 -66.5800 TS 60 0 38.0550 -69.7923 HU 70 5 41
1882278N11279 1882 35 NA NA NOT_NAMED 1882-10-15 12:00:00 TS 37.8200 -67.5400 60 hurdat_atl main 483 439 O____________O hurdat_atl AL061882 37.5000 -66.1000 TS 60 0 38.3000 -69.7000 HU 70 985 6 1
1882278N11279 1882 35 NA NA NOT_NAMED 1882-10-15 15:00:00 TS 38.2252 -67.6226 main 439 360 P____________P AL061882 37.6529 -65.6028 TS 60 0 38.7975 -69.6424 HU 70 11 337
1882278N11279 1882 35 NA NA NOT_NAMED 1882-10-15 18:00:00 TS 38.8667 -68.1000 60 hurdat_atl main 350 184 O____________O hurdat_atl AL061882 37.8000 -65.1000 TS 60 0 39.4000 -69.6000 HU 70 24 324
1882278N11279 1882 35 NA NA NOT_NAMED 1882-10-15 21:00:00 TS 40.1519 -69.4435 main 174 139 _____________P AL061882 TS -1 40.1519 -69.4435 HU 67 20 327
1882278N11279 1882 35 NA NA NOT_NAMED 1882-10-16 00:00:00 TS 40.5000 -69.5000 main 139 137 _____________O -1 40.5000 -69.5000 HU 65 5 242
1882278N11279 1882 35 NA NA NOT_NAMED 1882-10-16 03:00:00 TS 39.9033 -70.0564 main 185 185 _____________P -1 39.9033 -70.0564 HU 62 19 212
1882278N11279 1882 35 NA NA NOT_NAMED 1882-10-16 06:00:00 TS 38.9000 -70.8000 main 261 261 _____________O -1 38.9000 -70.8000 TS 60 22 210
1882278N11279 1882 35 NA NA NOT_NAMED 1882-10-16 09:00:00 TS 38.0251 -71.4382 main 301 293 _____________P -1 38.0251 -71.4382 TS 57 19 211
1882278N11279 1882 35 NA NA NOT_NAMED 1882-10-16 12:00:00 TS 37.3000 -72.0000 main 293 277 _____________O -1 37.3000 -72.0000 TS 55 14 216
1882278N11279 1882 35 NA NA NOT_NAMED 1882-10-16 15:00:00 TS 36.9246 -72.4352 main 283 261 _____________P -1 36.9246 -72.4352 TS 55 9 227
1882278N11279 1882 35 NA NA NOT_NAMED 1882-10-16 18:00:00 TS 36.7000 -72.8000 main 261 225 _____________O -1 36.7000 -72.8000 TS 55 8 228
1882278N11279 1882 35 NA NA NOT_NAMED 1882-10-16 21:00:00 TS 36.3998 -73.1496 main 225 182 _____________P -1 36.3998 -73.1496 TS 52 8 223
1882278N11279 1882 35 NA NA NOT_NAMED 1882-10-17 00:00:00 TS 36.1000 -73.5000 main 182 143 _____________O -1 36.1000 -73.5000 TS 50 9 225
1882278N11279 1882 35 NA NA NOT_NAMED 1882-10-17 03:00:00 TS 35.7925 -73.9000 main 143 113 _____________P -1 35.7925 -73.9000 TS 47 9 227
1882278N11279 1882 35 NA NA NOT_NAMED 1882-10-17 06:00:00 TS 35.5000 -74.3000 main 113 98 _____________O -1 35.5000 -74.3000 TS 45 9 228
1882278N11279 1882 35 NA NA NOT_NAMED 1882-10-17 09:00:00 TS 35.1676 -74.7402 main 98 91 _____________P -1 35.1676 -74.7402 TS 42 8 229
1882278N11279 1882 35 NA NA NOT_NAMED 1882-10-17 12:00:00 TS 35.0000 -75.0000 main 92 84 _____________O -1 35.0000 -75.0000 TS 40 1004 1 274
1882278N11279 1882 35 NA NA NOT_NAMED 1882-10-17 15:00:00 TS 35.1750 -74.8826 main 84 84 _____________P -1 35.1750 -74.8826 TS 37 6 33
1882278N11279 1882 35 NA NA NOT_NAMED 1882-10-17 18:00:00 TS 35.5000 -74.6000 main 87 87 _____________O -1 35.5000 -74.6000 TS 35 7 34
1882278N11279 1882 35 NA NA NOT_NAMED 1882-10-17 21:00:00 TS 35.7500 -74.3999 main 99 98 _____________P -1 35.7500 -74.3999 TS 32 6 33
1882278N11279 1882 35 NA NA NOT_NAMED 1882-10-18 00:00:00 TS 36.0000 -74.2000 main 118 118 _____________O -1 36.0000 -74.2000 TD 30 6 33
1882278N11279 1882 35 NA NA NOT_NAMED 1882-10-18 03:00:00 TS 36.2500 -73.9924 main 145 141 _____________P -1 36.2500 -73.9924 TD 27 6 33
1882278N11279 1882 35 NA NA NOT_NAMED 1882-10-18 06:00:00 ET 36.5000 -73.8000 main 170 170 _____________O -1 36.5000 -73.8000 EX 25 6 30
1882278N11279 1882 35 NA NA NOT_NAMED 1882-10-18 09:00:00 ET 36.7500 -73.6401 main 198 195 _____________P -1 36.7500 -73.6401 EX 22 6 26
1882278N11279 1882 35 NA NA NOT_NAMED 1882-10-18 12:00:00 ET 37.0000 -73.5000 main 197 _____________O -1 37.0000 -73.5000 EX 20 1014 5 24

IBTrACS Databaseについて

本データベースは、米国NOAAが公開する1842年以降の世界の熱帯低気圧のベストトラックデータアーカイブInternational Best Track Archive for Climate Stewardship (IBTrACS)を、ウェブで閲覧しやすい形式に変換したものです。

最終更新日:2021-12-01